Time;durP1;ratioP1;P1;durP2;ratioP2;P2;SDS_P1;SDS_P2;PMS_P1;PMS_P2;Temp;Humidity;BMP_temperature;BMP_pressure;BME280_temperature;BME280_humidity;BME280_pressure;Samples;Min_cycle;Max_cycle;Signal;HPM_P1;HPM_P2
2021/07/04 00:00:32;;;;;;;6.70;4.60;;;;;;;27.64;34.88;99336.59;4497988;31;34895;-79
2021/07/04 00:03:01;;;;;;;6.90;5.00;;;;;;;27.67;34.66;99333.34;4482375;31;34032;-79
2021/07/04 00:05:39;;;;;;;6.87;4.97;;;;;;;27.61;34.86;99337.16;4484918;31;33472;-77
2021/07/04 00:08:08;;;;;;;7.37;5.18;;;;;;;27.60;34.90;99335.50;4497652;31;34667;-79
2021/07/04 00:10:39;;;;;;;6.47;5.07;;;;;;;27.57;35.02;99336.84;4469262;32;32482;-78
2021/07/04 00:13:07;;;;;;;6.55;5.00;;;;;;;27.55;34.89;99335.47;4482457;31;34980;-79
2021/07/04 00:15:40;;;;;;;6.97;4.70;;;;;;;27.52;35.08;99334.09;4481891;32;33393;-78
2021/07/04 00:18:19;;;;;;;5.93;4.65;;;;;;;27.52;35.16;99333.28;4483234;32;33593;-78
2021/07/04 00:20:47;;;;;;;7.40;5.37;;;;;;;27.53;34.87;99332.19;4481957;32;34716;-78
2021/07/04 00:23:14;;;;;;;6.60;5.10;;;;;;;27.50;34.98;99330.78;4481954;32;33493;-79
2021/07/04 00:25:42;;;;;;;7.75;5.37;;;;;;;27.47;35.11;99328.59;4482169;32;33612;-80
2021/07/04 00:28:11;;;;;;;7.75;5.47;;;;;;;27.45;34.81;99326.09;4468772;32;32349;-80
2021/07/04 00:30:39;;;;;;;6.65;5.18;;;;;;;27.44;35.06;99326.38;4469457;32;32584;-79
2021/07/04 00:33:07;;;;;;;8.27;5.05;;;;;;;27.43;35.05;99327.47;4469470;32;32913;-78
2021/07/04 00:35:34;;;;;;;6.20;5.00;;;;;;;27.41;35.04;99335.09;4490635;31;34446;-81
2021/07/04 00:38:04;;;;;;;7.45;5.18;;;;;;;27.39;35.07;99335.38;4482501;31;34082;-81
2021/07/04 00:40:31;;;;;;;6.47;5.00;;;;;;;27.38;34.94;99331.00;4488395;31;33732;-80
2021/07/04 00:42:59;;;;;;;6.60;5.25;;;;;;;27.37;35.00;99329.34;4488958;31;34400;-79
2021/07/04 00:45:27;;;;;;;7.70;5.85;;;;;;;27.35;35.18;99326.03;4498291;31;33405;-79
2021/07/04 00:47:55;;;;;;;7.43;5.80;;;;;;;27.34;35.11;99326.31;4498816;31;33138;-78
2021/07/04 00:50:25;;;;;;;6.35;5.15;;;;;;;27.31;35.01;99326.81;4498451;31;34821;-78
2021/07/04 00:52:53;;;;;;;6.60;5.05;;;;;;;27.31;35.16;99322.16;4498244;31;33865;-78
2021/07/04 00:55:21;;;;;;;7.20;5.50;;;;;;;27.30;35.10;99317.78;4497348;31;33505;-77
2021/07/04 00:57:49;;;;;;;6.40;5.12;;;;;;;27.30;35.05;99319.69;4486596;31;34888;-78
2021/07/04 01:00:23;;;;;;;9.30;5.80;;;;;;;27.29;35.22;99315.31;4486485;31;34282;-78
2021/07/04 01:02:52;;;;;;;6.85;5.55;;;;;;;27.26;35.36;99311.19;4499575;31;33889;-78
2021/07/04 01:05:25;;;;;;;7.40;5.87;;;;;;;27.25;35.21;99311.44;4486766;31;34086;-79
2021/07/04 01:07:53;;;;;;;8.57;5.72;;;;;;;27.24;35.16;99309.81;4486901;31;34085;-79
2021/07/04 01:10:22;;;;;;;6.35;5.37;;;;;;;27.24;35.24;99307.06;4486281;31;34862;-79
2021/07/04 01:12:51;;;;;;;;;;;;;;;27.22;35.41;99304.56;4501274;31;34128;-79
2021/07/04 01:15:19;;;;;;;7.05;5.50;;;;;;;27.32;35.17;99312.84;4501021;31;33288;-79
2021/07/04 01:17:48;;;;;;;6.53;5.07;;;;;;;27.22;35.12;99310.06;4499598;31;34083;-79
2021/07/04 01:20:17;;;;;;;8.18;5.80;;;;;;;27.19;35.24;99305.94;4486403;31;34832;-79
2021/07/04 01:23:05;;;;;;;6.47;5.57;;;;;;;27.16;35.25;99309.19;4499384;31;34250;-78
2021/07/04 01:25:34;;;;;;;6.53;5.68;;;;;;;27.15;35.26;99304.81;4500561;31;34159;-79
2021/07/04 01:28:03;;;;;;;6.68;5.72;;;;;;;27.13;35.42;99309.72;4486884;31;34008;-77
2021/07/04 01:30:30;;;;;;;8.13;5.60;;;;;;;27.12;35.34;99304.50;4483807;32;34117;-78
2021/07/04 01:32:58;;;;;;;7.65;5.78;;;;;;;27.12;35.38;99308.06;4471117;32;33545;-78
2021/07/04 01:35:27;;;;;;;8.18;6.57;;;;;;;27.12;35.36;99297.13;4484220;32;34185;-78
2021/07/04 01:37:54;;;;;;;7.25;6.10;;;;;;;27.11;35.40;99302.88;4484130;32;33587;-79
2021/07/04 01:40:23;;;;;;;10.02;5.93;;;;;;;27.09;35.43;99305.88;4471853;32;33675;-79
2021/07/04 01:42:52;;;;;;;8.13;6.55;;;;;;;27.09;35.51;99305.03;4471714;32;33682;-78
2021/07/04 01:45:20;;;;;;;10.57;6.00;;;;;;;27.11;35.45;99305.59;4483427;32;34134;-77
2021/07/04 01:47:49;;;;;;;7.30;6.10;;;;;;;27.10;35.31;99301.22;4470888;32;33901;-77
2021/07/04 01:50:20;;;;;;;8.30;5.97;;;;;;;27.09;35.33;99305.88;4483166;32;33959;-79
2021/07/04 01:52:47;;;;;;;10.40;6.65;;;;;;;27.08;35.46;99304.19;4483236;32;33867;-79
2021/07/04 01:55:16;;;;;;;7.85;6.18;;;;;;;27.08;35.41;99298.72;4483635;32;33529;-79
2021/07/04 01:57:44;;;;;;;8.10;5.40;;;;;;;27.06;35.41;99300.87;4495932;31;32889;-77
2021/07/04 02:00:16;;;;;;;9.65;6.43;;;;;;;27.07;35.25;99308.00;4485050;32;34151;-78
2021/07/04 02:02:45;;;;;;;7.30;5.70;;;;;;;27.07;35.32;99305.25;4484059;32;34657;-79
2021/07/04 02:05:13;;;;;;;8.35;5.82;;;;;;;27.04;35.29;99305.78;4483799;32;33113;-78
2021/07/04 02:07:42;;;;;;;11.00;6.43;;;;;;;27.04;35.44;99303.03;4483670;32;33841;-78
2021/07/04 02:10:16;;;;;;;6.80;5.50;;;;;;;27.02;35.52;99309.88;4484661;32;34139;-77
2021/07/04 02:12:45;;;;;;;9.55;6.22;;;;;;;27.00;35.57;99310.16;4483292;32;33880;-78
2021/07/04 02:15:24;;;;;;;10.50;6.65;;;;;;;27.00;35.67;99307.41;4483222;32;32691;-78
2021/07/04 02:17:53;;;;;;;9.15;6.40;;;;;;;26.98;35.81;99309.56;4471728;32;33835;-76
2021/07/04 02:20:31;;;;;;;7.32;6.25;;;;;;;26.98;35.60;99306.84;4484647;32;34878;-77
2021/07/04 02:23:12;;;;;;;6.95;5.75;;;;;;;26.99;35.63;99307.66;4483265;32;33694;-79
2021/07/04 02:25:42;;;;;;;9.40;6.65;;;;;;;26.99;35.69;99305.75;4483388;32;33420;-78
2021/07/04 02:28:12;;;;;;;8.95;7.20;;;;;;;26.98;35.69;99304.09;4470498;32;34032;-76
2021/07/04 02:30:40;;;;;;;7.87;6.57;;;;;;;26.96;35.82;99307.09;4484763;31;33668;-79
2021/07/04 02:33:08;;;;;;;7.97;6.35;;;;;;;26.96;35.60;99300.81;4498921;31;33895;-78
2021/07/04 02:35:43;;;;;;;7.95;6.28;;;;;;;26.95;35.82;99310.94;4499008;31;33377;-78
2021/07/04 02:38:10;;;;;;;10.82;6.68;;;;;;;26.94;35.95;99308.44;4498768;31;33946;-78
2021/07/04 02:40:38;;;;;;;8.57;6.05;;;;;;;26.93;36.00;99320.50;4498201;31;33085;-79
2021/07/04 02:43:07;;;;;;;7.97;6.50;;;;;;;26.92;35.91;99311.44;4500361;31;33874;-78
2021/07/04 02:45:36;;;;;;;;;;;;;;;26.92;35.84;99305.97;4486605;31;33387;-78
2021/07/04 02:48:04;;;;;;;12.07;7.07;;;;;;;27.03;35.63;99309.59;4498093;31;33634;-79
2021/07/04 02:50:33;;;;;;;7.53;6.40;;;;;;;26.95;35.83;99310.09;4499132;31;33581;-76
2021/07/04 02:53:00;;;;;;;7.20;5.93;;;;;;;26.93;35.83;99307.63;4485621;31;33527;-79
2021/07/04 02:55:28;;;;;;;9.80;6.25;;;;;;;26.92;35.92;99310.62;4485426;31;33361;-79
2021/07/04 02:57:55;;;;;;;7.80;6.20;;;;;;;26.91;35.94;99311.72;4483745;31;33741;-77
2021/07/04 03:00:25;;;;;;;9.38;6.60;;;;;;;26.89;35.94;99319.34;4498497;31;33768;-79
2021/07/04 03:02:54;;;;;;;8.45;6.53;;;;;;;26.89;35.97;99322.91;4499853;31;33947;-79
2021/07/04 03:05:22;;;;;;;7.85;6.65;;;;;;;26.89;35.97;99325.66;4487275;31;34043;-78
2021/07/04 03:07:49;;;;;;;7.70;6.80;;;;;;;26.89;35.90;99322.09;4483145;32;33696;-79
2021/07/04 03:10:18;;;;;;;9.15;6.70;;;;;;;26.88;35.86;99320.44;4484166;32;34250;-79
2021/07/04 03:12:47;;;;;;;8.00;6.62;;;;;;;26.87;35.92;99327.03;4482821;32;34532;-78
2021/07/04 03:15:15;;;;;;;10.07;6.57;;;;;;;26.88;35.92;99334.97;4484322;32;33346;-79
2021/07/04 03:17:45;;;;;;;9.02;6.60;;;;;;;26.86;36.03;99339.03;4496934;31;33769;-78
2021/07/04 03:20:13;;;;;;;8.48;6.20;;;;;;;26.86;36.01;99330.81;4485203;31;34070;-80
2021/07/04 03:22:43;;;;;;;7.70;6.53;;;;;;;26.86;36.07;99330.81;4498709;31;33836;-73
2021/07/04 03:25:14;;;;;;;7.60;6.80;;;;;;;26.85;36.09;99334.66;4486073;31;33388;-79
2021/07/04 03:27:42;;;;;;;8.52;6.43;;;;;;;26.83;36.14;99325.88;4499811;31;33849;-80
2021/07/04 03:30:12;;;;;;;8.38;6.90;;;;;;;26.83;36.11;99318.50;4485662;31;33935;-80
2021/07/04 03:32:43;;;;;;;7.47;6.18;;;;;;;26.83;36.12;99325.88;4498714;31;33510;-79
2021/07/04 03:35:12;;;;;;;8.50;6.70;;;;;;;26.81;36.26;99320.66;4485860;31;34202;-77
2021/07/04 03:37:40;;;;;;;9.93;7.80;;;;;;;26.80;36.21;99326.41;4485535;31;35041;-78
2021/07/04 03:40:09;;;;;;;8.40;6.35;;;;;;;26.78;36.29;99312.97;4472787;31;35099;-78
2021/07/04 03:42:37;;;;;;;11.07;6.35;;;;;;;26.78;36.37;99331.31;4485861;31;33492;-78
2021/07/04 03:45:06;;;;;;;10.65;6.78;;;;;;;26.79;36.47;99328.31;4485436;31;33444;-79
2021/07/04 03:47:34;;;;;;;9.98;6.57;;;;;;;26.76;36.41;99320.59;4498290;31;33889;-73
2021/07/04 03:50:02;;;;;;;9.27;7.32;;;;;;;26.75;36.54;99324.44;4498484;31;34029;-79
2021/07/04 03:52:33;;;;;;;10.85;7.00;;;;;;;26.74;36.54;99330.19;4498290;31;34710;-79
2021/07/04 03:55:03;;;;;;;10.05;7.18;;;;;;;26.74;36.63;99320.06;4483922;32;33625;-79
2021/07/04 03:57:32;;;;;;;9.35;7.03;;;;;;;26.73;36.70;99320.31;4469256;32;34679;-79
2021/07/04 04:00:01;;;;;;;9.90;7.20;;;;;;;26.73;36.66;99326.62;4483808;32;35461;-79
2021/07/04 04:02:31;;;;;;;9.02;7.55;;;;;;;26.75;36.63;99320.88;4483683;32;33476;-77
2021/07/04 04:04:59;;;;;;;8.32;6.93;;;;;;;26.73;36.79;99317.59;4483171;32;33524;-79
2021/07/04 04:07:28;;;;;;;8.32;6.87;;;;;;;26.73;36.85;99321.16;4469334;32;33875;-80
2021/07/04 04:09:57;;;;;;;10.50;7.28;;;;;;;26.73;36.90;99318.41;4469713;32;34080;-80
2021/07/04 04:12:25;;;;;;;8.45;6.55;;;;;;;26.71;36.91;99318.66;4469004;32;33695;-80
2021/07/04 04:14:52;;;;;;;9.55;7.18;;;;;;;26.73;36.86;99312.94;4483635;32;33821;-80
2021/07/04 04:17:20;;;;;;;8.77;7.30;;;;;;;26.73;37.01;99315.66;4483181;32;33883;-78
2021/07/04 04:19:49;;;;;;;8.73;6.95;;;;;;;26.71;37.06;99313.19;4483324;32;34849;-79
2021/07/04 04:22:17;;;;;;;9.85;6.97;;;;;;;26.72;37.15;99314.03;4483392;32;33852;-79
2021/07/04 04:24:44;;;;;;;9.40;6.85;;;;;;;26.74;37.12;99316.50;4468929;32;33577;-79
2021/07/04 04:27:12;;;;;;;8.48;7.03;;;;;;;26.73;37.17;99320.31;4483345;32;34048;-79
2021/07/04 04:29:42;;;;;;;7.87;6.82;;;;;;;26.74;37.25;99324.72;4483414;32;34093;-78
2021/07/04 04:32:11;;;;;;;8.30;7.25;;;;;;;26.73;37.20;99323.06;4485415;32;33964;-79
2021/07/04 04:34:39;;;;;;;8.23;6.45;;;;;;;26.73;37.24;99317.59;4458350;32;33481;-79
2021/07/04 04:37:07;;;;;;;9.73;6.50;;;;;;;26.74;37.23;99314.59;4470871;32;34705;-78
2021/07/04 04:39:34;;;;;;;8.95;6.93;;;;;;;26.73;37.34;99312.12;4470821;32;34068;-79
2021/07/04 04:42:02;;;;;;;11.40;6.72;;;;;;;26.72;37.39;99311.28;4471103;32;33157;-78
2021/07/04 04:44:37;;;;;;;10.70;7.10;;;;;;;26.71;37.40;99304.97;4485021;32;33975;-79
2021/07/04 04:47:04;;;;;;;9.52;6.40;;;;;;;26.73;37.39;99312.94;4470854;32;33970;-78
2021/07/04 04:49:32;;;;;;;9.93;6.60;;;;;;;26.74;37.38;99311.84;4485261;32;34801;-78
2021/07/04 04:52:02;;;;;;;8.32;6.28;;;;;;;26.75;37.38;99315.41;4470977;32;33832;-79
2021/07/04 04:54:30;;;;;;;8.82;6.57;;;;;;;26.73;37.44;99314.84;4497338;31;33545;-78
2021/07/04 04:57:05;;;;;;;7.40;6.00;;;;;;;26.75;37.35;99316.22;4499785;31;33439;-79
2021/07/04 04:59:34;;;;;;;10.13;5.93;;;;;;;26.78;37.36;99314.87;4487154;31;32622;-79
2021/07/04 05:02:02;;;;;;;8.63;5.95;;;;;;;26.76;37.41;99317.03;4500705;31;33932;-79
2021/07/04 05:04:30;;;;;;;7.45;5.20;;;;;;;26.75;37.44;99313.50;4499728;31;34331;-78
2021/07/04 05:06:58;;;;;;;9.27;5.55;;;;;;;26.79;37.46;99313.81;4500538;31;33564;-79
2021/07/04 05:09:25;;;;;;;6.65;5.20;;;;;;;26.79;37.46;99317.34;4499453;31;34803;-77
2021/07/04 05:11:53;;;;;;;7.50;5.10;;;;;;;26.79;37.56;99314.63;4500700;31;33877;-79
2021/07/04 05:14:20;;;;;;;7.25;5.43;;;;;;;26.81;37.53;99319.81;4499381;31;33464;-79
2021/07/04 05:16:48;;;;;;;6.80;4.93;;;;;;;26.81;37.55;99317.09;4499428;31;33882;-78
2021/07/04 05:19:15;;;;;;;6.40;4.70;;;;;;;26.82;37.60;99321.50;4473703;31;33791;-79
2021/07/04 05:21:43;;;;;;;7.50;5.50;;;;;;;26.84;37.58;99316.56;4499305;31;33802;-78
2021/07/04 05:24:12;;;;;;;6.57;5.22;;;;;;;26.84;37.64;99316.56;4500518;31;33484;-78
2021/07/04 05:26:40;;;;;;;10.38;4.87;;;;;;;26.84;37.84;99317.41;4473444;31;33970;-79
2021/07/04 05:29:07;;;;;;;10.10;4.80;;;;;;;26.86;37.75;99314.37;4499031;31;34108;-80
2021/07/04 05:31:35;;;;;;;9.32;4.70;;;;;;;26.89;37.71;99308.41;4499269;31;33381;-79
2021/07/04 05:34:03;;;;;;;8.88;4.55;;;;;;;26.87;37.78;99311.41;4473334;31;33448;-79
2021/07/04 05:36:31;;;;;;;13.25;4.95;;;;;;;26.90;37.88;99312.78;4486176;31;33883;-77
2021/07/04 05:38:59;;;;;;;7.60;5.00;;;;;;;26.92;38.00;99310.62;4486039;31;32476;-79
2021/07/04 05:41:26;;;;;;;7.93;4.60;;;;;;;26.92;38.19;99316.09;4499087;31;34164;-75
2021/07/04 05:43:54;;;;;;;8.02;4.85;;;;;;;26.95;38.16;99318.31;4498914;31;33553;-80
2021/07/04 05:46:21;;;;;;;10.35;5.60;;;;;;;26.96;38.14;99323.53;4499126;31;34148;-79
2021/07/04 05:48:49;;;;;;;7.15;4.78;;;;;;;26.98;38.11;99320.53;4486169;31;33263;-79
2021/07/04 05:51:17;;;;;;;8.68;4.82;;;;;;;27.02;37.94;99326.31;4500227;31;34501;-78
2021/07/04 05:53:44;;;;;;;7.80;5.10;;;;;;;27.00;38.09;99329.31;4489570;31;33693;-79
2021/07/04 05:56:12;;;;;;;9.25;5.00;;;;;;;27.00;38.20;99323.84;4483368;32;33957;-80
2021/07/04 05:58:39;;;;;;;8.15;5.20;;;;;;;27.01;38.24;99330.16;4484226;32;34049;-80
2021/07/04 06:01:07;;;;;;;12.10;4.97;;;;;;;27.05;38.11;99331.28;4484479;32;33815;-78
2021/07/04 06:03:34;;;;;;;7.28;4.93;;;;;;;27.03;38.22;99326.03;4484529;32;33539;-77
2021/07/04 06:06:02;;;;;;;12.70;5.53;;;;;;;27.03;38.25;99336.16;4484348;32;34318;-77
2021/07/04 06:08:29;;;;;;;7.03;4.75;;;;;;;27.05;38.16;99339.50;4484691;32;33890;-78
2021/07/04 06:10:57;;;;;;;9.45;5.30;;;;;;;27.08;38.23;99334.31;4484381;32;33469;-74
2021/07/04 06:13:24;;;;;;;8.15;5.30;;;;;;;27.07;38.22;99342.78;4468166;31;34247;-71
2021/07/04 06:15:57;;;;;;;11.77;5.15;;;;;;;27.07;38.19;99335.38;4488588;31;35018;-79
2021/07/04 06:18:25;;;;;;;9.85;5.70;;;;;;;27.08;38.23;99339.78;4485887;31;34627;-72
2021/07/04 06:20:52;;;;;;;8.57;4.82;;;;;;;27.10;38.18;99336.81;4489128;31;34569;-82
2021/07/04 06:23:20;;;;;;;8.73;5.03;;;;;;;27.10;38.22;99332.16;4484217;32;35017;-77
2021/07/04 06:25:47;;;;;;;6.40;4.85;;;;;;;27.12;38.23;99332.72;4482907;32;33984;-82
2021/07/04 06:28:15;;;;;;;7.75;4.95;;;;;;;27.14;38.25;99336.03;4489032;31;34794;-77
2021/07/04 06:30:42;;;;;;;9.75;5.07;;;;;;;27.16;38.29;99344.78;4498992;31;34731;-80
2021/07/04 06:33:11;;;;;;;11.32;5.15;;;;;;;27.18;38.31;99339.06;4488162;31;32878;-81
2021/07/04 06:35:39;;;;;;;9.18;5.53;;;;;;;27.18;38.32;99331.66;4482772;32;33674;-82
2021/07/04 06:38:06;;;;;;;10.75;5.12;;;;;;;27.19;38.37;99336.06;4483182;32;34910;-72
2021/07/04 06:40:34;;;;;;;7.50;5.07;;;;;;;27.20;38.37;99336.88;4484223;32;33798;-81
2021/07/04 06:43:01;;;;;;;8.20;4.68;;;;;;;27.24;38.36;99328.97;4472897;31;33221;-78
2021/07/04 06:45:29;;;;;;;8.43;5.47;;;;;;;27.26;38.35;99335.00;4483886;31;33059;-75
2021/07/04 06:47:57;;;;;;;6.28;4.80;;;;;;;27.26;38.38;99332.28;4493142;31;34046;-75
2021/07/04 06:50:24;;;;;;;7.85;5.10;;;;;;;27.28;38.37;99338.28;4493018;31;33573;-75
2021/07/04 06:52:52;;;;;;;8.40;5.25;;;;;;;27.28;38.39;99341.03;4496474;31;33610;-75
2021/07/04 06:55:20;;;;;;;6.65;4.72;;;;;;;27.30;38.31;99344.34;4498076;31;34842;-76
2021/07/04 06:57:47;;;;;;;8.15;4.97;;;;;;;27.32;38.35;99344.91;4471597;32;33663;-75
2021/07/04 07:00:16;;;;;;;9.23;4.93;;;;;;;27.32;38.37;99336.69;4482858;32;33707;-74
2021/07/04 07:02:44;;;;;;;7.20;4.55;;;;;;;27.32;38.40;99337.50;4469968;32;33503;-77
2021/07/04 07:05:12;;;;;;;6.28;4.72;;;;;;;27.34;38.40;99340.00;4483055;32;34629;-74
2021/07/04 07:07:40;;;;;;;7.03;5.32;;;;;;;27.38;38.38;99335.66;4484359;32;34900;-77
2021/07/04 07:10:10;;;;;;;9.93;4.80;;;;;;;27.40;38.33;99337.03;4496801;31;34111;-75
2021/07/04 07:13:00;;;;;;;8.60;5.18;;;;;;;27.42;38.37;99331.28;4480822;32;34168;-75
2021/07/04 07:15:28;;;;;;;6.87;4.82;;;;;;;27.48;38.25;99327.50;4483937;32;34677;-79
2021/07/04 07:17:55;;;;;;;8.75;4.82;;;;;;;27.48;38.22;99332.16;4484053;32;34041;-80
2021/07/04 07:20:24;;;;;;;9.35;4.50;;;;;;;27.46;38.25;99327.72;4483868;32;33938;-80
2021/07/04 07:22:52;;;;;;;9.03;4.67;;;;;;;27.49;38.28;99328.31;4482493;32;32644;-80
2021/07/04 07:25:20;;;;;;;7.07;4.53;;;;;;;27.51;38.25;99318.72;4469791;32;33860;-80
2021/07/04 07:27:49;;;;;;;7.18;4.53;;;;;;;27.52;38.24;99319.56;4484614;31;35110;-80
2021/07/04 07:30:18;;;;;;;8.90;4.95;;;;;;;27.54;38.23;99317.38;4498812;31;34610;-77
2021/07/04 07:32:46;;;;;;;7.40;4.70;;;;;;;27.53;38.27;99322.03;4498369;31;34522;-80
2021/07/04 07:35:14;;;;;;;9.70;4.28;;;;;;;27.56;38.18;99327.00;4499428;31;34811;-72
2021/07/04 07:37:42;;;;;;;6.43;4.90;;;;;;;27.58;38.16;99319.31;4499473;31;33966;-71
2021/07/04 07:40:10;;;;;;;11.27;5.22;;;;;;;27.59;37.90;99322.87;4498356;31;33892;-73
2021/07/04 07:42:38;;;;;;;6.80;5.05;;;;;;;27.61;37.67;99329.75;4499420;31;33517;-70
2021/07/04 07:45:07;;;;;;;6.72;5.20;;;;;;;27.63;37.32;99326.75;4498102;31;33790;-71
2021/07/04 07:47:35;;;;;;;8.43;5.25;;;;;;;27.64;36.97;99322.91;4499232;31;33742;-72
2021/07/04 07:50:04;;;;;;;8.52;5.07;;;;;;;27.66;36.93;99324.31;4497905;31;33919;-72
2021/07/04 07:52:32;;;;;;;7.80;5.32;;;;;;;27.68;36.56;99324.03;4499286;31;33276;-66
2021/07/04 07:55:00;;;;;;;9.10;5.32;;;;;;;27.69;36.32;99323.75;4469532;32;33944;-65
2021/07/04 07:57:28;;;;;;;7.87;5.93;;;;;;;27.74;36.31;99319.41;4483209;32;34946;-70
2021/07/04 07:59:56;;;;;;;8.48;5.30;;;;;;;27.76;36.27;99320.00;4483467;32;34023;-71
2021/07/04 08:02:23;;;;;;;9.60;5.40;;;;;;;27.75;36.15;99316.44;4483411;32;33158;-84
2021/07/04 08:04:51;;;;;;;7.37;4.93;;;;;;;27.74;36.26;99319.41;4455312;32;32836;-84
2021/07/04 08:07:19;;;;;;;11.68;4.90;;;;;;;27.75;36.35;99323.84;4469112;32;34849;-84
2021/07/04 08:09:46;;;;;;;11.35;5.12;;;;;;;27.75;36.44;99323.84;4483419;32;33599;-84
2021/07/04 08:12:14;;;;;;;10.30;5.28;;;;;;;27.74;36.49;99322.16;4468864;32;32195;-84
2021/07/04 08:14:43;;;;;;;10.57;4.90;;;;;;;27.74;36.45;99316.69;4469646;32;34738;-84
2021/07/04 08:17:11;;;;;;;13.80;5.15;;;;;;;27.76;36.38;99314.50;4456295;32;34964;-85
2021/07/04 08:19:38;;;;;;;6.72;4.75;;;;;;;27.75;36.36;99318.34;4483311;32;33857;-85
2021/07/04 08:22:06;;;;;;;12.73;4.90;;;;;;;27.75;36.42;99316.44;4469112;32;32832;-84
2021/07/04 08:24:33;;;;;;;9.50;5.57;;;;;;;27.74;36.48;99322.16;4483373;32;34954;-85
2021/07/04 08:27:01;;;;;;;7.10;4.70;;;;;;;27.73;36.42;99324.09;4481986;32;33976;-83
2021/07/04 08:29:28;;;;;;;6.47;4.82;;;;;;;27.74;36.45;99322.16;4483053;32;33876;-84
2021/07/04 08:31:56;;;;;;;6.12;4.80;;;;;;;27.74;36.48;99313.94;4469018;32;33591;-81
2021/07/04 08:34:24;;;;;;;9.52;4.97;;;;;;;27.74;36.42;99313.94;4482876;32;34098;-75
2021/07/04 08:36:52;;;;;;;6.90;4.57;;;;;;;27.75;36.43;99315.63;4482478;32;33960;-72
2021/07/04 08:39:19;;;;;;;7.18;4.62;;;;;;;27.76;36.50;99314.50;4482998;32;34051;-73
2021/07/04 08:41:47;;;;;;;9.07;4.75;;;;;;;27.76;36.47;99318.06;4482823;32;33818;-73
2021/07/04 08:44:14;;;;;;;9.82;4.55;;;;;;;27.75;36.35;99310.13;4483106;32;33978;-73
2021/07/04 08:46:43;;;;;;;10.38;5.22;;;;;;;27.76;36.42;99317.25;4482698;32;34851;-72
2021/07/04 08:49:12;;;;;;;8.73;4.87;;;;;;;27.75;36.50;99308.22;4468600;32;33886;-73
2021/07/04 08:51:40;;;;;;;9.73;4.78;;;;;;;27.76;36.49;99311.78;4468878;32;34430;-73
2021/07/04 08:54:08;;;;;;;9.07;5.00;;;;;;;27.76;36.52;99303.56;4482667;32;34686;-75
2021/07/04 08:56:36;;;;;;;22.17;5.80;;;;;;;27.75;36.49;99302.72;4482472;32;34099;-73
2021/07/04 08:59:03;;;;;;;24.83;5.95;;;;;;;27.75;36.82;99294.50;4455842;32;33389;-72
2021/07/04 09:01:31;;;;;;;16.27;5.90;;;;;;;27.74;36.99;99300.22;4468498;32;33459;-73
2021/07/04 09:04:10;;;;;;;19.48;6.05;;;;;;;27.75;36.97;99291.75;4455388;32;32459;-72
2021/07/04 09:06:39;;;;;;;14.23;5.05;;;;;;;27.77;36.98;99292.31;4482458;32;34037;-73
2021/07/04 09:09:26;;;;;;;13.20;5.32;;;;;;;27.75;36.98;99291.75;4455052;32;34205;-74
2021/07/04 09:12:07;;;;;;;12.13;4.85;;;;;;;27.77;36.97;99294.22;4468147;32;33074;-72
2021/07/04 09:14:35;;;;;;;17.58;4.97;;;;;;;27.77;36.99;99286.00;4468419;32;34559;-72
2021/07/04 09:17:33;;;;;;;13.35;4.82;;;;;;;27.75;37.04;99283.53;4482975;32;34025;-73
2021/07/04 09:20:03;;;;;;;15.18;5.28;;;;;;;27.75;37.06;99278.06;4457339;32;33942;-73
2021/07/04 09:22:37;;;;;;;16.70;5.60;;;;;;;27.73;37.09;99272.00;4473282;31;32446;-73
2021/07/04 09:25:26;;;;;;;12.13;5.10;;;;;;;27.75;37.11;99279.97;4473963;31;33567;-73
2021/07/04 09:28:07;;;;;;;13.23;5.07;;;;;;;27.77;37.09;99277.78;4500518;31;34221;-73
2021/07/04 09:30:43;;;;;;;12.00;5.07;;;;;;;27.75;37.13;99272.56;4500510;31;33791;-72
2021/07/04 09:33:31;;;;;;;13.55;4.95;;;;;;;27.75;37.18;99279.97;4500601;31;33373;-73
2021/07/04 09:36:06;;;;;;;8.00;4.50;;;;;;;27.72;37.22;99275.84;4475583;31;33908;-73
2021/07/04 09:38:38;;;;;;;16.48;4.87;;;;;;;27.75;37.21;99267.09;4486245;31;33716;-72
2021/07/04 09:41:10;;;;;;;16.12;5.10;;;;;;;27.73;37.26;99274.75;4500538;31;34477;-72
2021/07/04 09:43:38;;;;;;;14.02;4.85;;;;;;;27.73;37.28;99266.50;4470017;32;33471;-73
2021/07/04 09:46:07;;;;;;;11.90;5.05;;;;;;;27.73;37.29;99261.03;4472485;31;32475;-73
2021/07/04 09:48:34;;;;;;;9.57;4.35;;;;;;;27.73;37.31;99254.72;4486001;31;35419;-72
2021/07/04 09:51:10;;;;;;;12.23;5.25;;;;;;;27.74;37.32;99262.69;4500788;31;34675;-70
2021/07/04 09:53:41;;;;;;;9.38;4.70;;;;;;;27.74;37.32;99262.69;4489762;31;33514;-73
2021/07/04 09:56:15;;;;;;;11.07;4.37;;;;;;;27.74;37.35;99264.59;4498612;31;33553;-72
2021/07/04 09:58:45;;;;;;;11.10;5.18;;;;;;;27.76;37.37;99259.69;4499732;31;34288;-71
2021/07/04 10:01:35;;;;;;;10.77;4.47;;;;;;;27.74;37.40;99261.84;4500197;31;34035;-73
2021/07/04 10:04:05;;;;;;;10.85;5.00;;;;;;;27.78;37.34;99252.81;4500359;31;33094;-74
2021/07/04 10:06:48;;;;;;;9.88;4.87;;;;;;;27.74;37.41;99257.19;4499153;31;33783;-73
2021/07/04 10:09:16;;;;;;;10.52;4.80;;;;;;;27.76;37.40;99246.81;4500188;31;35160;-73
2021/07/04 10:11:45;;;;;;;10.55;4.53;;;;;;;27.74;37.44;99245.41;4500218;31;33912;-73
2021/07/04 10:14:12;;;;;;;11.80;4.53;;;;;;;27.74;37.46;99242.66;4486337;31;33887;-72
2021/07/04 10:16:43;;;;;;;10.25;4.57;;;;;;;27.74;37.49;99239.94;4500226;31;33866;-73
2021/07/04 10:19:17;;;;;;;11.23;4.53;;;;;;;27.74;37.53;99240.75;4499092;31;33568;-73
2021/07/04 10:21:45;;;;;;;9.50;4.62;;;;;;;27.76;37.51;99240.50;4500144;31;34776;-72
2021/07/04 10:24:13;;;;;;;10.90;4.70;;;;;;;27.76;37.51;99240.50;4487303;31;33602;-71
2021/07/04 10:26:40;;;;;;;8.68;4.57;;;;;;;27.75;37.51;99230.63;4485846;31;34214;-71
2021/07/04 10:29:08;;;;;;;10.55;4.47;;;;;;;27.75;37.52;99230.63;4499770;31;33987;-74
2021/07/04 10:31:36;;;;;;;9.40;4.28;;;;;;;27.75;37.53;99228.72;4472955;31;34256;-73
2021/07/04 10:34:07;;;;;;;8.60;4.30;;;;;;;27.76;37.54;99224.06;4500068;31;33427;-73
2021/07/04 10:36:58;;;;;;;10.63;4.40;;;;;;;27.75;37.57;99214.19;4485671;31;34089;-71
2021/07/04 10:39:26;;;;;;;7.03;3.95;;;;;;;27.78;37.52;99213.63;4500242;31;34156;-72
2021/07/04 10:41:56;;;;;;;9.20;4.82;;;;;;;27.75;37.59;99215.00;4485688;31;34254;-72
2021/07/04 10:44:53;;;;;;;7.90;4.00;;;;;;;27.75;37.63;99212.28;4500031;31;33637;-73
2021/07/04 10:47:35;;;;;;;8.40;4.15;;;;;;;27.78;37.59;99213.63;4499927;31;34944;-69
2021/07/04 10:50:06;;;;;;;9.90;4.35;;;;;;;27.77;37.66;99212.00;4487109;31;34209;-71
2021/07/04 10:52:35;;;;;;;6.87;4.28;;;;;;;27.75;37.71;99206.78;4499752;31;34064;-72
2021/07/04 10:55:04;;;;;;;6.32;4.10;;;;;;;27.76;37.71;99208.44;4500021;31;33209;-72
2021/07/04 10:57:36;;;;;;;7.15;4.43;;;;;;;27.75;37.75;99204.03;4500103;31;34723;-72
2021/07/04 11:00:04;;;;;;;10.63;4.45;;;;;;;27.77;37.74;99187.31;4489511;31;34953;-72
2021/07/04 11:02:40;;;;;;;7.55;3.95;;;;;;;27.77;37.72;99188.13;4484184;32;34246;-71
2021/07/04 11:05:34;;;;;;;6.87;3.97;;;;;;;27.78;37.71;99183.47;4484116;32;33446;-72
2021/07/04 11:08:01;;;;;;;8.27;4.45;;;;;;;27.78;37.72;99184.28;4492453;31;34055;-74
2021/07/04 11:10:31;;;;;;;8.60;4.07;;;;;;;27.77;37.75;99177.16;4499941;31;34888;-74
2021/07/04 11:13:07;;;;;;;6.93;4.27;;;;;;;27.77;37.75;99170.87;4499873;31;33896;-74
2021/07/04 11:15:36;;;;;;;8.05;4.25;;;;;;;27.79;37.72;99169.50;4499646;31;33591;-72
2021/07/04 11:18:13;;;;;;;5.50;3.67;;;;;;;27.78;37.76;99164.28;4499606;31;33986;-74
2021/07/04 11:20:43;;;;;;;6.60;3.97;;;;;;;27.78;37.77;99162.37;4485847;31;34730;-72
2021/07/04 11:23:18;;;;;;;7.95;3.78;;;;;;;27.78;37.78;99159.62;4499538;31;34774;-74
2021/07/04 11:25:55;;;;;;;6.87;4.03;;;;;;;27.80;37.77;99164.84;4499780;31;33599;-72
2021/07/04 11:28:33;;;;;;;6.93;3.80;;;;;;;27.79;37.81;99158.53;4499717;31;33926;-74
2021/07/04 11:31:05;;;;;;;6.65;4.20;;;;;;;27.78;37.82;99161.53;4499630;31;34324;-74
2021/07/04 11:33:51;;;;;;;5.57;3.95;;;;;;;27.79;37.83;99160.44;4499724;31;33917;-72
2021/07/04 11:36:30;;;;;;;6.05;3.70;;;;;;;27.79;37.87;99165.94;4500034;31;33886;-70
2021/07/04 11:39:08;;;;;;;6.90;3.60;;;;;;;27.80;37.88;99162.13;4499525;31;33910;-73
2021/07/04 11:41:40;;;;;;;6.30;3.80;;;;;;;27.78;37.88;99178.81;4497662;31;34926;-72
2021/07/04 11:44:12;;;;;;;7.32;3.47;;;;;;;27.78;37.90;99172.50;4499626;31;33894;-74